createdAt,value
2018-04-14T00:00:04.790Z,963.11
2018-04-14T00:15:04.674Z,963.3
2018-04-14T00:30:05.142Z,963.52
2018-04-14T00:45:04.590Z,964.03
2018-04-14T01:00:05.043Z,963.81
2018-04-14T01:15:04.414Z,964.27
2018-04-14T01:30:04.544Z,964.27
2018-04-14T01:45:04.696Z,964.25
2018-04-14T02:00:04.825Z,964.62
2018-04-14T02:15:05.285Z,964.84
2018-04-14T02:30:04.724Z,965.16
2018-04-14T02:45:05.410Z,965
2018-04-14T03:00:04.876Z,965.19
2018-04-14T03:15:04.347Z,965.43
2018-04-14T03:30:04.800Z,965.68
2018-04-14T03:45:05.479Z,965.81
2018-04-14T04:00:04.983Z,966.16
2018-04-14T04:15:04.427Z,966.27
2018-04-14T04:30:05.281Z,966.62
2018-04-14T04:45:04.928Z,966.89
2018-04-14T05:00:04.428Z,967.16
2018-04-14T05:15:04.400Z,966.76
2018-04-14T05:30:05.515Z,965.92
2018-04-14T05:45:04.674Z,965.08
2018-04-14T06:00:05.368Z,964.62
2018-04-14T06:15:04.941Z,963.6
2018-04-14T06:30:04.670Z,961.93
2018-04-14T06:45:05.349Z,967.57
2018-04-14T07:00:05.290Z,965.64
2018-04-14T07:15:05.023Z,963.92
2018-04-14T07:30:04.882Z,968.37
2018-04-14T07:45:05.765Z,962.58
2018-04-14T08:00:05.100Z,965.76
2018-04-14T08:15:04.813Z,966.89
2018-04-14T08:30:05.181Z,968.46
2018-04-14T08:45:04.803Z,966.49
2018-04-14T09:00:04.811Z,965.26
2018-04-14T09:15:05.287Z,964.19
2018-04-14T09:30:04.397Z,967.31
2018-04-14T09:45:05.118Z,961.83
2018-04-14T10:00:04.572Z,965.54
2018-04-14T10:15:04.655Z,960.74
2018-04-14T10:30:05.330Z,962.44
2018-04-14T10:45:05.466Z,963.08
2018-04-14T11:00:04.647Z,963.35
2018-04-14T11:15:05.228Z,963.68
2018-04-14T11:30:04.389Z,964.09
2018-04-14T11:45:05.033Z,964.17
2018-04-14T12:00:04.506Z,964.34
2018-04-14T12:15:04.948Z,964.17
2018-04-14T12:30:04.728Z,964.04
2018-04-14T12:45:05.330Z,962.72
2018-04-14T13:00:04.955Z,960.85
2018-04-14T13:15:04.630Z,961.37
2018-04-14T13:30:05.284Z,961.29
2018-04-14T13:45:04.794Z,961.24
2018-04-14T14:00:05.233Z,961.13
2018-04-14T14:15:05.027Z,960.61
2018-04-14T14:30:05.045Z,960.5
2018-04-14T14:45:04.388Z,960.8
2018-04-14T15:00:05.583Z,960.06
2018-04-14T15:15:04.759Z,960.22
2018-04-14T15:30:05.393Z,960.14
2018-04-14T15:45:05.489Z,960.41
2018-04-14T16:00:05.047Z,960.96
2018-04-14T16:15:05.129Z,960.96
2018-04-14T16:30:05.515Z,961.48
2018-04-14T16:45:05.009Z,961.29
2018-04-14T17:00:04.951Z,961.48
2018-04-14T17:15:04.958Z,961.7
2018-04-14T17:30:04.689Z,962.28
2018-04-14T17:45:05.685Z,962.88
2018-04-14T18:00:05.478Z,963.76
2018-04-14T18:15:05.323Z,964.61
2018-04-14T18:30:04.735Z,965.19
2018-04-14T18:45:04.659Z,965.98
2018-04-14T19:00:05.014Z,959.13
2018-04-14T19:15:04.743Z,959.62
2018-04-14T19:30:04.813Z,960
2018-04-14T19:45:05.373Z,960.27
2018-04-14T20:00:04.865Z,960.41
2018-04-14T20:15:04.498Z,960.36
2018-04-14T20:30:05.202Z,961.25
2018-04-14T20:45:05.392Z,961.55
2018-04-14T21:00:05.414Z,961.88
2018-04-14T21:15:04.883Z,961.99
2018-04-14T21:30:05.594Z,962.04
2018-04-14T21:45:05.090Z,962.45
2018-04-14T22:00:04.541Z,962.67
2018-04-14T22:15:05.030Z,962.97
2018-04-14T22:30:05.002Z,963.05
2018-04-14T22:45:05.170Z,963.4
2018-04-14T23:00:05.190Z,963.51
2018-04-14T23:15:05.128Z,963.92
2018-04-14T23:30:05.657Z,963.84
2018-04-14T23:45:04.673Z,964.57
